createdAt,value
2018-08-18T00:02:01.361Z,44.88
2018-08-18T00:04:33.608Z,45.30
2018-08-18T00:07:04.086Z,48.44
2018-08-18T00:09:33.786Z,48.64
2018-08-18T00:12:03.641Z,49.13
2018-08-18T00:14:34.721Z,50.08
2018-08-18T00:17:04.834Z,50.08
2018-08-18T00:19:34.688Z,49.13
2018-08-18T00:22:04.774Z,48.16
2018-08-18T00:24:38.938Z,48.42
2018-08-18T00:27:08.690Z,46.44
2018-08-18T00:29:38.477Z,46.63
2018-08-18T00:32:08.157Z,44.42
2018-08-18T00:34:42.610Z,46.32
2018-08-18T00:37:12.330Z,46.54
2018-08-18T00:39:42.105Z,48.03
2018-08-18T00:42:11.809Z,46.80
2018-08-18T00:44:41.874Z,46.69
2018-08-18T00:47:11.717Z,46.41
2018-08-18T00:49:41.339Z,47.98
2018-08-18T00:52:11.128Z,46.18
2018-08-18T00:54:40.868Z,45.26
2018-08-18T00:57:24.024Z,45.95
2018-08-18T00:59:54.959Z,46.08
2018-08-18T01:02:24.696Z,46.53
2018-08-18T01:04:57.127Z,46.64
2018-08-18T01:07:28.773Z,46.68
2018-08-18T01:09:58.855Z,46.01
2018-08-18T01:12:29.187Z,45.61
2018-08-18T01:14:59.401Z,45.67
2018-08-18T01:17:28.943Z,46.31
2018-08-18T01:19:59.544Z,46.10
2018-08-18T01:22:29.228Z,46.29
2018-08-18T01:24:59.323Z,48.02
2018-08-18T01:27:30.064Z,47.00
2018-08-18T01:30:04.805Z,47.09
2018-08-18T01:32:35.283Z,47.52
2018-08-18T01:35:06.060Z,47.83
2018-08-18T01:37:35.692Z,46.64
2018-08-18T01:40:05.644Z,47.57
2018-08-18T01:42:35.398Z,47.77
2018-08-18T01:45:06.010Z,48.66
2018-08-18T01:47:35.777Z,49.09
2018-08-18T01:50:10.872Z,48.84
2018-08-18T01:52:40.557Z,49.63
2018-08-18T01:55:11.462Z,50.76
2018-08-18T01:57:41.224Z,52.54
2018-08-18T02:00:24.049Z,50.18
2018-08-18T02:02:53.803Z,48.95
2018-08-18T02:05:24.210Z,49.93
2018-08-18T02:07:54.072Z,49.26
2018-08-18T02:10:23.700Z,47.55
2018-08-18T02:13:08.055Z,48.25
2018-08-18T02:15:38.908Z,51.28
2018-08-18T02:18:08.592Z,50.20
2018-08-18T02:20:38.362Z,49.24
2018-08-18T02:23:08.096Z,48.70
2018-08-18T02:25:37.851Z,49.71
2018-08-18T02:28:08.964Z,49.27
2018-08-18T02:30:38.707Z,51.07
2018-08-18T02:33:08.711Z,49.06
2018-08-18T02:35:39.125Z,49.33
2018-08-18T02:38:08.853Z,48.42
2018-08-18T02:40:38.633Z,48.84
2018-08-18T02:43:19.080Z,52.12
2018-08-18T02:45:49.211Z,56.20
2018-08-18T02:48:20.915Z,56.21
2018-08-18T02:50:52.590Z,54.97
2018-08-18T02:53:27.733Z,52.41
2018-08-18T02:55:58.108Z,52.56
2018-08-18T02:58:27.636Z,53.07
2018-08-18T03:00:57.464Z,53.50
2018-08-18T03:03:27.053Z,54.72
2018-08-18T03:06:00.695Z,52.08
2018-08-18T03:08:31.181Z,52.06
2018-08-18T03:11:00.951Z,51.78
2018-08-18T03:13:30.718Z,51.62
2018-08-18T03:16:03.157Z,50.57
2018-08-18T03:18:38.137Z,52.73
2018-08-18T03:21:08.106Z,54.40
2018-08-18T03:23:37.821Z,55.48
2018-08-18T03:26:08.682Z,54.66
2018-08-18T03:28:43.211Z,55.97
2018-08-18T03:31:12.896Z,57.03
2018-08-18T03:33:42.675Z,56.09
2018-08-18T03:36:24.487Z,55.30
2018-08-18T03:38:55.697Z,54.39
2018-08-18T03:41:27.038Z,55.73
2018-08-18T03:43:57.665Z,54.78
2018-08-18T03:46:27.771Z,53.01
2018-08-18T03:48:57.498Z,53.52
2018-08-18T03:51:32.593Z,52.56
2018-08-18T03:54:03.007Z,51.85
2018-08-18T03:56:32.750Z,50.52
2018-08-18T03:59:02.554Z,50.83
2018-08-18T04:01:42.406Z,50.62
2018-08-18T04:04:13.357Z,50.12
2018-08-18T04:06:44.864Z,50.16
2018-08-18T04:09:16.239Z,50.28
2018-08-18T04:11:46.044Z,49.93
2018-08-18T04:14:17.972Z,49.95
2018-08-18T04:16:49.030Z,50.15
2018-08-18T04:19:20.702Z,50.37
2018-08-18T04:21:52.396Z,49.99
2018-08-18T04:24:22.404Z,52.29
2018-08-18T04:26:53.305Z,53.50
2018-08-18T04:29:23.129Z,52.65
2018-08-18T04:31:52.802Z,52.44
2018-08-18T04:39:15.613Z,51.83
2018-08-18T04:41:45.301Z,50.74
2018-08-18T04:44:15.135Z,49.92
2018-08-18T04:46:44.872Z,50.17
2018-08-18T04:49:14.704Z,49.89
2018-08-18T04:51:44.476Z,49.64
2018-08-18T04:54:14.101Z,51.81
2018-08-18T04:56:44.111Z,52.34
2018-08-18T04:59:13.864Z,51.13
2018-08-18T05:01:43.847Z,52.45
2018-08-18T05:04:14.258Z,53.04
2018-08-18T05:06:45.347Z,51.57
2018-08-18T05:09:15.835Z,49.83
2018-08-18T05:11:45.572Z,49.30
2018-08-18T05:14:15.284Z,48.48
2018-08-18T05:16:46.068Z,50.83
2018-08-18T05:19:15.780Z,51.83
2018-08-18T05:21:45.571Z,51.06
2018-08-18T05:24:23.930Z,49.70
2018-08-18T05:26:55.172Z,48.64
2018-08-18T05:29:24.917Z,48.36
2018-08-18T05:31:54.693Z,47.49
2018-08-18T05:34:24.538Z,45.69
2018-08-18T05:36:54.310Z,46.41
2018-08-18T05:39:24.140Z,45.23
2018-08-18T05:41:53.934Z,45.06
2018-08-18T05:44:23.690Z,44.44
2018-08-18T05:46:53.428Z,44.97
2018-08-18T05:49:24.407Z,45.46
2018-08-18T05:51:55.770Z,44.60
2018-08-18T05:54:27.918Z,45.48
2018-08-18T05:56:57.718Z,47.65
2018-08-18T05:59:27.410Z,48.94
2018-08-18T06:01:57.189Z,46.94
2018-08-18T06:04:27.379Z,47.84
2018-08-18T06:06:57.225Z,47.50
2018-08-18T06:09:27.089Z,47.20
2018-08-18T06:11:58.960Z,46.26
2018-08-18T06:14:28.968Z,46.69
2018-08-18T06:16:59.742Z,45.26
2018-08-18T06:19:29.577Z,43.42
2018-08-18T06:21:59.355Z,43.94
2018-08-18T06:24:29.268Z,43.38
2018-08-18T06:27:00.014Z,43.63
2018-08-18T06:29:29.880Z,43.60
2018-08-18T06:32:01.065Z,42.74
2018-08-18T06:34:32.514Z,42.85
2018-08-18T06:37:03.124Z,41.95
2018-08-18T06:39:47.513Z,41.27
2018-08-18T06:42:27.045Z,40.47
2018-08-18T06:44:56.911Z,39.47
2018-08-18T06:47:27.182Z,39.23
2018-08-18T06:49:56.895Z,38.44
2018-08-18T06:52:26.649Z,37.63
2018-08-18T06:54:57.275Z,37.73
2018-08-18T06:57:37.627Z,36.15
2018-08-18T07:00:10.872Z,35.07
2018-08-18T07:02:41.200Z,34.67
2018-08-18T07:05:15.370Z,35.61
2018-08-18T07:07:46.552Z,34.06
2018-08-18T07:10:33.666Z,33.63
2018-08-18T07:13:09.037Z,33.69
2018-08-18T07:15:39.957Z,32.69
2018-08-18T07:18:11.765Z,32.35
2018-08-18T07:20:42.034Z,31.30
2018-08-18T07:23:11.883Z,32.20
2018-08-18T07:25:49.048Z,32.16
2018-08-18T07:28:21.671Z,32.04
2018-08-18T07:30:51.580Z,32.28
2018-08-18T07:33:21.484Z,30.93
2018-08-18T07:35:51.196Z,32.04
2018-08-18T07:38:21.426Z,31.98
2018-08-18T07:40:53.467Z,31.22
2018-08-18T07:43:30.149Z,29.05
2018-08-18T07:46:02.692Z,23.51
2018-08-18T07:48:34.229Z,25.76
2018-08-18T07:51:04.429Z,26.57
2018-08-18T07:53:35.532Z,26.63
2018-08-18T07:56:06.037Z,27.81
2018-08-18T07:58:38.657Z,27.29
2018-08-18T08:01:09.441Z,25.69
2018-08-18T08:03:39.790Z,22.61
2018-08-18T08:06:10.420Z,22.98
2018-08-18T08:08:46.652Z,21.00
2018-08-18T08:11:17.270Z,23.03
2018-08-18T08:13:47.347Z,22.68
2018-08-18T08:16:18.147Z,22.25
2018-08-18T08:18:49.597Z,21.12
2018-08-18T08:21:20.026Z,21.02
2018-08-18T08:23:50.498Z,20.61
2018-08-18T08:26:20.651Z,20.26
2018-08-18T08:28:51.443Z,22.46
2018-08-18T08:31:21.795Z,23.59
2018-08-18T08:33:52.509Z,23.88
2018-08-18T08:36:23.249Z,24.45
2018-08-18T08:38:59.323Z,23.41
2018-08-18T08:41:31.705Z,20.90
2018-08-18T08:44:02.516Z,21.48
2018-08-18T08:46:32.938Z,21.32
2018-08-18T08:49:03.950Z,20.04
2018-08-18T08:51:34.331Z,19.29
2018-08-18T08:54:04.955Z,20.36
2018-08-18T08:56:40.115Z,20.60
2018-08-18T08:59:11.244Z,20.40
2018-08-18T09:01:41.735Z,21.60
2018-08-18T09:04:12.620Z,21.13
2018-08-18T09:06:48.576Z,22.60
2018-08-18T09:09:19.382Z,23.37
2018-08-18T09:11:50.120Z,23.49
2018-08-18T09:14:20.854Z,23.18
2018-08-18T09:16:51.513Z,23.92
2018-08-18T09:19:22.538Z,22.66
2018-08-18T09:21:56.396Z,22.69
2018-08-18T09:24:28.680Z,23.00
2018-08-18T09:27:02.568Z,22.29
2018-08-18T09:29:38.535Z,21.80
2018-08-18T09:32:09.225Z,23.18
2018-08-18T09:34:58.347Z,23.90
2018-08-18T09:37:28.923Z,24.54
2018-08-18T09:39:58.957Z,23.77
2018-08-18T09:42:29.344Z,22.37
2018-08-18T09:44:59.569Z,22.01
2018-08-18T09:47:29.974Z,23.03
2018-08-18T09:50:00.712Z,21.52
2018-08-18T09:52:31.140Z,22.66
2018-08-18T09:55:01.638Z,21.95
2018-08-18T09:57:32.602Z,23.23
2018-08-18T10:00:03.764Z,23.70
2018-08-18T10:02:34.040Z,24.01
2018-08-18T10:05:04.798Z,24.22
2018-08-18T10:07:35.801Z,21.93
2018-08-18T10:10:06.723Z,20.59
2018-08-18T10:12:36.996Z,19.75
2018-08-18T10:15:07.414Z,18.22
2018-08-18T10:17:38.922Z,17.71
2018-08-18T10:20:09.276Z,18.06
2018-08-18T10:22:40.296Z,17.53
2018-08-18T10:25:10.841Z,21.15
2018-08-18T10:27:42.147Z,22.00
2018-08-18T10:30:12.664Z,22.30
2018-08-18T10:32:48.404Z,23.30
2018-08-18T10:35:33.690Z,23.38
2018-08-18T10:38:06.244Z,22.63
2018-08-18T10:40:36.925Z,22.84
2018-08-18T10:43:07.505Z,24.13
2018-08-18T10:45:37.920Z,23.86
2018-08-18T10:48:08.835Z,22.70
2018-08-18T10:50:54.704Z,20.54
2018-08-18T10:53:24.988Z,18.62
2018-08-18T10:55:55.288Z,18.87
2018-08-18T10:58:37.171Z,19.00
2018-08-18T11:01:07.779Z,19.76
2018-08-18T11:03:37.995Z,21.52
2018-08-18T11:06:08.889Z,21.11
2018-08-18T11:08:40.393Z,23.15
2018-08-18T11:11:15.183Z,22.18
2018-08-18T11:13:45.799Z,21.92
2018-08-18T11:16:16.763Z,22.82
2018-08-18T11:18:48.408Z,21.80
2018-08-18T11:21:22.729Z,22.54
2018-08-18T11:23:57.450Z,22.32
2018-08-18T11:26:34.177Z,18.85
2018-08-18T11:29:14.123Z,20.27
2018-08-18T11:31:44.384Z,19.51
2018-08-18T11:34:14.276Z,19.86
2018-08-18T11:36:58.837Z,18.71
2018-08-18T11:39:30.443Z,15.79
2018-08-18T11:42:00.649Z,17.59
2018-08-18T11:44:30.452Z,14.86
2018-08-18T11:47:00.196Z,16.01
2018-08-18T11:49:30.611Z,16.08
2018-08-18T11:52:00.373Z,15.82
2018-08-18T11:54:30.072Z,15.92
2018-08-18T11:57:00.146Z,14.93
2018-08-18T11:59:29.862Z,14.82
2018-08-18T12:01:59.527Z,16.56
2018-08-18T12:04:29.220Z,17.12
2018-08-18T12:07:00.370Z,16.74
2018-08-18T12:09:30.969Z,16.55
2018-08-18T12:12:00.627Z,17.68
2018-08-18T12:14:31.196Z,16.41
2018-08-18T12:17:00.972Z,15.47
2018-08-18T12:19:31.352Z,14.84
2018-08-18T12:22:01.151Z,14.39
2018-08-18T12:24:30.977Z,14.62
2018-08-18T12:27:08.070Z,14.66
2018-08-18T12:29:37.888Z,12.40
2018-08-18T12:32:13.364Z,13.24
2018-08-18T12:34:43.131Z,12.99
2018-08-18T12:37:14.760Z,12.28
2018-08-18T12:39:44.906Z,11.75
2018-08-18T12:42:18.754Z,12.35
2018-08-18T12:44:48.530Z,12.27
2018-08-18T12:47:18.320Z,11.91
2018-08-18T12:49:49.162Z,12.87
2018-08-18T12:52:18.871Z,11.71
2018-08-18T12:54:48.525Z,11.87
2018-08-18T12:57:52.352Z,13.37
2018-08-18T13:00:22.189Z,13.23
2018-08-18T13:02:56.224Z,12.28
2018-08-18T13:05:27.871Z,12.52
2018-08-18T13:07:58.836Z,13.96
2018-08-18T13:10:30.122Z,14.44
2018-08-18T13:12:59.841Z,13.88
2018-08-18T13:15:29.611Z,13.53
2018-08-18T13:18:00.161Z,13.66
2018-08-18T13:20:29.869Z,14.55
2018-08-18T13:22:59.610Z,13.05
2018-08-18T13:25:30.536Z,13.62
2018-08-18T13:28:00.275Z,14.20
2018-08-18T13:30:29.969Z,14.09
2018-08-18T13:33:00.289Z,14.49
2018-08-18T13:35:30.016Z,14.01
2018-08-18T13:37:59.676Z,14.73
2018-08-18T13:40:30.021Z,13.39
2018-08-18T13:42:59.788Z,14.59
2018-08-18T13:45:43.408Z,14.47
2018-08-18T13:48:14.486Z,14.66
2018-08-18T13:50:44.294Z,15.62
2018-08-18T13:53:14.142Z,16.59
2018-08-18T13:59:41.849Z,16.35
2018-08-18T14:02:12.592Z,14.74
2018-08-18T14:04:44.195Z,15.34
2018-08-18T14:07:14.680Z,15.17
2018-08-18T14:09:50.329Z,14.78
2018-08-18T14:12:20.537Z,14.07
2018-08-18T14:14:51.131Z,14.60
2018-08-18T14:17:23.704Z,15.06
2018-08-18T14:19:53.917Z,16.51
2018-08-18T14:22:23.960Z,16.48
2018-08-18T14:24:53.761Z,18.29
2018-08-18T14:27:24.922Z,17.48
2018-08-18T14:29:54.759Z,17.57
2018-08-18T14:32:28.968Z,18.46
2018-08-18T14:35:07.887Z,16.15
2018-08-18T14:37:40.967Z,16.34
2018-08-18T14:40:18.945Z,17.41
2018-08-18T14:42:49.881Z,18.12
2018-08-18T14:45:21.058Z,18.04
2018-08-18T14:47:51.818Z,17.07
2018-08-18T14:50:28.369Z,16.58
2018-08-18T14:52:58.222Z,17.01
2018-08-18T14:55:27.887Z,18.18
2018-08-18T14:58:04.829Z,18.39
2018-08-18T15:00:34.830Z,18.85
2018-08-18T15:03:04.555Z,18.96
2018-08-18T15:05:34.286Z,18.78
2018-08-18T15:08:05.053Z,19.13
2018-08-18T15:10:41.129Z,18.47
2018-08-18T15:13:11.986Z,19.63
2018-08-18T15:15:41.897Z,19.88
2018-08-18T15:18:15.017Z,20.25
2018-08-18T15:20:45.258Z,19.98
2018-08-18T15:23:16.069Z,20.73
2018-08-18T15:25:46.692Z,21.79
2018-08-18T15:28:19.527Z,22.49
2018-08-18T15:30:51.540Z,21.91
2018-08-18T15:33:22.901Z,23.44
2018-08-18T15:35:52.660Z,23.65
2018-08-18T15:38:59.971Z,23.98
2018-08-18T15:41:29.790Z,24.19
2018-08-18T15:43:59.577Z,23.40
2018-08-18T15:46:35.077Z,23.82
2018-08-18T15:49:10.238Z,25.61
2018-08-18T15:51:40.077Z,25.18
2018-08-18T15:56:55.555Z,23.61
2018-08-18T15:59:25.266Z,24.77
2018-08-18T16:01:55.353Z,24.82
2018-08-18T16:04:25.284Z,25.17
2018-08-18T16:06:56.146Z,25.05
2018-08-18T16:09:26.116Z,26.35
2018-08-18T16:12:01.812Z,26.26
2018-08-18T16:14:31.676Z,25.23
2018-08-18T16:19:39.097Z,26.51
2018-08-18T16:22:09.384Z,26.10
2018-08-18T16:24:45.485Z,26.30
2018-08-18T16:27:15.328Z,27.17
2018-08-18T16:29:45.165Z,25.46
2018-08-18T16:32:25.314Z,26.55
2018-08-18T16:35:13.442Z,26.53
2018-08-18T16:37:45.674Z,26.65
2018-08-18T16:40:15.463Z,26.84
2018-08-18T16:42:45.478Z,26.33
2018-08-18T16:45:15.345Z,26.92
2018-08-18T16:47:52.109Z,27.62
2018-08-18T16:50:22.550Z,26.73
2018-08-18T16:52:52.441Z,27.22
2018-08-18T16:55:22.466Z,27.70
2018-08-18T16:57:52.226Z,27.67
2018-08-18T17:00:22.042Z,27.38
2018-08-18T17:02:51.829Z,26.46
2018-08-18T17:05:21.778Z,27.61
2018-08-18T17:07:51.534Z,28.11
2018-08-18T17:10:21.442Z,27.90
2018-08-18T17:12:51.248Z,27.91
2018-08-18T17:15:21.169Z,27.52
2018-08-18T17:17:50.879Z,29.57
2018-08-18T17:20:20.577Z,30.38
2018-08-18T17:22:50.312Z,29.51
2018-08-18T17:25:20.101Z,30.13
2018-08-18T17:27:49.914Z,29.91
2018-08-18T17:30:19.887Z,29.29
2018-08-18T17:32:49.589Z,29.88
2018-08-18T17:35:19.133Z,30.04
2018-08-18T17:37:48.856Z,30.71
2018-08-18T17:40:18.408Z,30.24
2018-08-18T17:42:48.288Z,29.31
2018-08-18T17:45:18.057Z,30.23
2018-08-18T17:47:55.090Z,30.41
2018-08-18T17:50:24.918Z,30.12
2018-08-18T17:52:54.708Z,30.48
2018-08-18T17:55:26.427Z,30.73
2018-08-18T17:57:56.250Z,30.92
2018-08-18T18:00:26.114Z,30.98
2018-08-18T18:02:57.404Z,32.02
2018-08-18T18:05:31.089Z,32.47
2018-08-18T18:08:03.056Z,31.89
2018-08-18T18:10:38.262Z,31.36
2018-08-18T18:13:15.545Z,31.20
2018-08-18T18:15:48.831Z,33.19
2018-08-18T18:18:19.900Z,33.24
2018-08-18T18:20:51.903Z,32.41
2018-08-18T18:23:22.230Z,32.52
2018-08-18T18:25:52.908Z,32.31
2018-08-18T18:28:22.790Z,32.13
2018-08-18T18:30:54.415Z,32.43
2018-08-18T18:33:24.176Z,32.74
2018-08-18T18:35:53.922Z,32.25
2018-08-18T18:38:23.729Z,33.15
2018-08-18T18:40:53.426Z,33.25
2018-08-18T18:43:23.361Z,33.71
2018-08-18T18:45:54.340Z,33.88
2018-08-18T18:48:24.257Z,33.48
2018-08-18T18:50:53.990Z,33.54
2018-08-18T18:53:23.905Z,34.21
2018-08-18T18:55:54.638Z,34.58
2018-08-18T18:58:24.408Z,34.53
2018-08-18T19:00:59.187Z,33.56
2018-08-18T19:03:29.005Z,34.59
2018-08-18T19:05:58.971Z,34.90
2018-08-18T19:08:28.806Z,34.87
2018-08-18T19:10:58.568Z,34.32
2018-08-18T19:13:28.722Z,35.22
2018-08-18T19:15:58.721Z,35.78
2018-08-18T19:18:28.529Z,34.94
2018-08-18T19:20:58.184Z,34.64
2018-08-18T19:23:28.214Z,35.76
2018-08-18T19:25:58.020Z,35.70
2018-08-18T19:28:27.811Z,36.28
2018-08-18T19:30:57.584Z,34.92
2018-08-18T19:33:27.378Z,35.19
2018-08-18T19:35:57.230Z,35.56
2018-08-18T19:38:26.951Z,34.84
2018-08-18T19:40:57.244Z,36.07
2018-08-18T19:43:28.147Z,36.08
2018-08-18T19:45:58.212Z,35.93
2018-08-18T19:48:28.922Z,35.24
2018-08-18T19:51:03.599Z,35.13
2018-08-18T19:53:35.583Z,35.67
2018-08-18T19:56:09.042Z,36.13
2018-08-18T19:58:38.855Z,36.22
2018-08-18T20:01:08.832Z,37.05
2018-08-18T20:03:38.714Z,37.12
2018-08-18T20:06:16.278Z,37.10
2018-08-18T20:08:46.151Z,36.88
2018-08-18T20:11:17.571Z,36.88
2018-08-18T20:13:47.291Z,37.48
2018-08-18T20:16:17.361Z,37.41
2018-08-18T20:18:47.053Z,38.75
2018-08-18T20:21:16.770Z,38.48
2018-08-18T20:23:46.653Z,37.97
2018-08-18T20:26:16.275Z,37.13
2018-08-18T20:28:45.977Z,37.51
2018-08-18T20:31:15.670Z,38.38
2018-08-18T20:33:45.632Z,37.76
2018-08-18T20:36:15.884Z,38.26
2018-08-18T20:38:46.785Z,39.06
2018-08-18T20:41:16.492Z,38.48
2018-08-18T20:43:48.700Z,38.39
2018-08-18T20:46:19.184Z,38.79
2018-08-18T20:48:48.961Z,39.89
2018-08-18T20:51:22.689Z,38.81
2018-08-18T20:53:52.439Z,39.14
2018-08-18T20:56:23.143Z,38.70
2018-08-18T20:58:52.842Z,38.76
2018-08-18T21:01:22.545Z,39.47
2018-08-18T21:03:52.342Z,39.85
2018-08-18T21:06:22.254Z,39.20
2018-08-18T21:08:52.034Z,39.43
2018-08-18T21:11:21.762Z,40.06
2018-08-18T21:13:52.428Z,39.45
2018-08-18T21:16:23.933Z,40.77
2018-08-18T21:18:53.749Z,40.30
2018-08-18T21:21:34.154Z,40.26
2018-08-18T21:24:04.247Z,41.83
2018-08-18T21:26:34.137Z,41.03
2018-08-18T21:29:03.866Z,42.25
2018-08-18T21:31:33.487Z,42.85
2018-08-18T21:34:04.289Z,41.73
2018-08-18T21:36:34.311Z,42.14
2018-08-18T21:39:07.250Z,41.64
2018-08-18T21:41:39.366Z,43.28
2018-08-18T21:44:11.172Z,42.73
2018-08-18T21:46:41.216Z,42.06
2018-08-18T21:49:11.781Z,41.88
2018-08-18T21:51:41.428Z,43.74
2018-08-18T21:54:11.145Z,45.67
2018-08-18T21:56:43.030Z,46.24
2018-08-18T21:59:14.186Z,46.89
2018-08-18T22:01:44.233Z,46.47
2018-08-18T22:04:14.008Z,44.62
2018-08-18T22:06:44.532Z,43.56
2018-08-18T22:09:24.788Z,42.87
2018-08-18T22:11:54.646Z,43.90
2018-08-18T22:14:24.512Z,45.13
2018-08-18T22:16:56.118Z,43.91
2018-08-18T22:19:26.371Z,43.26
2018-08-18T22:21:56.091Z,44.90
2018-08-18T22:24:25.894Z,45.19
2018-08-18T22:26:55.984Z,46.03
2018-08-18T22:29:27.312Z,46.68
2018-08-18T22:31:57.100Z,46.71
2018-08-18T22:34:26.852Z,45.41
2018-08-18T22:37:03.089Z,46.34
2018-08-18T22:39:32.887Z,47.45
2018-08-18T22:42:02.705Z,47.82
2018-08-18T22:44:32.419Z,48.14
2018-08-18T22:47:04.891Z,47.82
2018-08-18T22:49:34.596Z,48.13
2018-08-18T22:52:04.550Z,48.23
2018-08-18T22:54:34.245Z,48.43
2018-08-18T22:57:05.770Z,48.75
2018-08-18T22:59:35.427Z,48.42
2018-08-18T23:02:05.476Z,49.03
2018-08-18T23:04:36.870Z,48.75
2018-08-18T23:07:08.413Z,47.84
2018-08-18T23:09:38.053Z,47.27
2018-08-18T23:12:09.061Z,48.01
2018-08-18T23:14:40.787Z,47.29
2018-08-18T23:17:12.712Z,46.28
2018-08-18T23:19:42.407Z,46.03
2018-08-18T23:22:22.811Z,46.24
2018-08-18T23:24:52.460Z,45.29
2018-08-18T23:27:23.084Z,46.08
2018-08-18T23:29:52.729Z,46.91
2018-08-18T23:32:25.324Z,46.85
2018-08-18T23:34:57.589Z,46.86
2018-08-18T23:37:27.892Z,47.36
2018-08-18T23:39:58.179Z,47.66
2018-08-18T23:42:28.253Z,47.51
2018-08-18T23:44:57.996Z,47.28
2018-08-18T23:47:27.876Z,47.11
2018-08-18T23:49:57.640Z,46.73
2018-08-18T23:52:27.245Z,46.77
2018-08-18T23:54:56.889Z,46.91
2018-08-18T23:57:26.607Z,47.04
2018-08-18T23:59:56.404Z,47.75
